Terminal Aerodrome Forecast
Issued by NWS Anchorage, AK

Home | Current Version | Previous Version | Text Only | Print | Product List | Glossary On
Versions: 1 2 3 4 5 6 7 8 9 10 11 12 13 14 15 16 17 18 19 20 21 22 23 24 25 26
000
FTAK31 PANC 151305 AAA
TAFANC
TAF AMD
PANC 151305Z 1513/1618 16004KT P6SM SCT050
      TEMPO 1513/1515 14011G18KT
     FM152100 35005KT P6SM VCSH SCT040 BKN070 WS020/12040KT
     FM160700 17005KT P6SM VCSH SCT040 BKN070=

USA.gov is the U.S. government's official web portal to all federal, state and local government web resources and services.